sensor_id;sensor_type;location;lat;lon;timestamp;pressure;altitude;pressure_sealevel;temperature;humidity
67818;BME280;54614;47.576;7.524;2023-03-04T00:02:01;99031.25;;;23.28;32.28
67818;BME280;54614;47.576;7.524;2023-03-04T00:04:27;99031.06;;;23.29;32.00
67818;BME280;54614;47.576;7.524;2023-03-04T00:06:53;99029.22;;;23.30;32.34
67818;BME280;54614;47.576;7.524;2023-03-04T00:09:19;99036.44;;;23.29;32.17
67818;BME280;54614;47.576;7.524;2023-03-04T00:11:45;99035.81;;;23.27;31.98
67818;BME280;54614;47.576;7.524;2023-03-04T00:14:11;99033.31;;;23.26;31.97
67818;BME280;54614;47.576;7.524;2023-03-04T00:16:36;99032.66;;;23.24;31.91
67818;BME280;54614;47.576;7.524;2023-03-04T00:19:03;99030.81;;;23.24;31.82
67818;BME280;54614;47.576;7.524;2023-03-04T00:21:29;99036.38;;;23.23;31.78
67818;BME280;54614;47.576;7.524;2023-03-04T00:23:55;99037.00;;;23.25;31.72
67818;BME280;54614;47.576;7.524;2023-03-04T00:26:22;99041.75;;;23.23;32.08
67818;BME280;54614;47.576;7.524;2023-03-04T00:28:47;99040.09;;;23.22;31.62
67818;BME280;54614;47.576;7.524;2023-03-04T00:31:13;99040.28;;;23.20;31.65
67818;BME280;54614;47.576;7.524;2023-03-04T00:33:39;99040.28;;;23.20;31.61
67818;BME280;54614;47.576;7.524;2023-03-04T00:36:06;99039.44;;;23.20;31.70
67818;BME280;54614;47.576;7.524;2023-03-04T00:38:32;99045.84;;;23.19;31.78
67818;BME280;54614;47.576;7.524;2023-03-04T00:40:57;99040.66;;;23.17;31.68
67818;BME280;54614;47.576;7.524;2023-03-04T00:43:23;99039.81;;;23.17;31.83
67818;BME280;54614;47.576;7.524;2023-03-04T00:45:49;99047.03;;;23.16;31.59
67818;BME280;54614;47.576;7.524;2023-03-04T00:48:15;99038.34;;;23.14;31.70
67818;BME280;54614;47.576;7.524;2023-03-04T00:50:42;99036.69;;;23.13;31.52
67818;BME280;54614;47.576;7.524;2023-03-04T00:53:09;99035.03;;;23.12;31.52
67818;BME280;54614;47.576;7.524;2023-03-04T00:55:35;99031.53;;;23.11;31.28
67818;BME280;54614;47.576;7.524;2023-03-04T00:58:02;99036.88;;;23.11;31.58
67818;BME280;54614;47.576;7.524;2023-03-04T01:00:28;99038.09;;;23.09;31.49
67818;BME280;54614;47.576;7.524;2023-03-04T01:02:54;99031.06;;;23.08;31.40
67818;BME280;54614;47.576;7.524;2023-03-04T01:05:20;99031.91;;;23.08;31.33
67818;BME280;54614;47.576;7.524;2023-03-04T01:07:46;99037.47;;;23.07;31.24
67818;BME280;54614;47.576;7.524;2023-03-04T01:10:13;99034.78;;;23.07;31.19
67818;BME280;54614;47.576;7.524;2023-03-04T01:12:39;99032.28;;;23.05;31.11
67818;BME280;54614;47.576;7.524;2023-03-04T01:15:08;99036.00;;;23.04;31.13
67818;BME280;54614;47.576;7.524;2023-03-04T01:17:34;99029.78;;;23.04;31.34
67818;BME280;54614;47.576;7.524;2023-03-04T01:20:00;99029.78;;;23.04;31.37
67818;BME280;54614;47.576;7.524;2023-03-04T01:22:26;99021.28;;;23.00;31.19
67818;BME280;54614;47.576;7.524;2023-03-04T01:24:51;99021.09;;;23.02;30.80
67818;BME280;54614;47.576;7.524;2023-03-04T01:27:17;99022.31;;;22.99;31.14
67818;BME280;54614;47.576;7.524;2023-03-04T01:29:43;99017.34;;;22.96;30.82
67818;BME280;54614;47.576;7.524;2023-03-04T01:32:09;99009.94;;;22.98;31.23
67818;BME280;54614;47.576;7.524;2023-03-04T01:34:35;99013.63;;;22.97;31.35
67818;BME280;54614;47.576;7.524;2023-03-04T01:37:01;99009.47;;;22.95;31.09
67818;BME280;54614;47.576;7.524;2023-03-04T01:39:27;99010.31;;;22.95;31.35
67818;BME280;54614;47.576;7.524;2023-03-04T01:41:53;99012.34;;;22.93;30.99
67818;BME280;54614;47.576;7.524;2023-03-04T01:44:19;99011.31;;;22.94;31.04
67818;BME280;54614;47.576;7.524;2023-03-04T01:46:52;99005.31;;;22.92;30.94
67818;BME280;54614;47.576;7.524;2023-03-04T01:49:19;99008.19;;;22.91;31.00
67818;BME280;54614;47.576;7.524;2023-03-04T01:51:52;99011.91;;;22.90;31.29
67818;BME280;54614;47.576;7.524;2023-03-04T01:54:21;99009.41;;;22.88;31.29
67818;BME280;54614;47.576;7.524;2023-03-04T01:56:50;99000.34;;;22.89;31.26
67818;BME280;54614;47.576;7.524;2023-03-04T01:59:20;99003.22;;;22.88;31.23
67818;BME280;54614;47.576;7.524;2023-03-04T02:01:51;99004.22;;;22.87;31.14
67818;BME280;54614;47.576;7.524;2023-03-04T02:04:25;98998.88;;;22.87;31.35
67818;BME280;54614;47.576;7.524;2023-03-04T02:06:52;98996.19;;;22.87;31.13
67818;BME280;54614;47.576;7.524;2023-03-04T02:09:20;98997.22;;;22.86;31.40
67818;BME280;54614;47.576;7.524;2023-03-04T02:11:48;99004.41;;;22.85;31.37
67818;BME280;54614;47.576;7.524;2023-03-04T02:14:15;98996.38;;;22.85;31.62
67818;BME280;54614;47.576;7.524;2023-03-04T02:16:42;98996.38;;;22.85;31.27
67818;BME280;54614;47.576;7.524;2023-03-04T02:21:47;99003.13;;;22.81;31.51
67818;BME280;54614;47.576;7.524;2023-03-04T02:24:45;98987.69;;;22.83;31.32
67818;BME280;54614;47.576;7.524;2023-03-04T02:27:12;98992.41;;;22.81;31.58
67818;BME280;54614;47.576;7.524;2023-03-04T02:29:38;98990.75;;;22.80;31.43
67818;BME280;54614;47.576;7.524;2023-03-04T02:32:04;98989.06;;;22.79;31.49
67818;BME280;54614;47.576;7.524;2023-03-04T02:34:34;98987.41;;;22.78;31.42
67818;BME280;54614;47.576;7.524;2023-03-04T02:37:02;98990.91;;;22.78;31.29
67818;BME280;54614;47.576;7.524;2023-03-04T02:41:58;98992.13;;;22.76;31.78
67818;BME280;54614;47.576;7.524;2023-03-04T02:44:31;98990.47;;;22.75;31.43
67818;BME280;54614;47.576;7.524;2023-03-04T02:47:00;98987.78;;;22.75;31.63
67818;BME280;54614;47.576;7.524;2023-03-04T02:49:30;98987.78;;;22.75;31.71
67818;BME280;54614;47.576;7.524;2023-03-04T02:52:04;98992.50;;;22.73;31.37
67818;BME280;54614;47.576;7.524;2023-03-04T02:54:31;98988.97;;;22.72;31.85
67818;BME280;54614;47.576;7.524;2023-03-04T02:57:01;98987.31;;;22.71;31.69
67818;BME280;54614;47.576;7.524;2023-03-04T02:59:29;98992.88;;;22.70;31.39
67818;BME280;54614;47.576;7.524;2023-03-04T03:01:55;98991.03;;;22.70;31.52
67818;BME280;54614;47.576;7.524;2023-03-04T03:04:23;98992.88;;;22.70;31.71
67818;BME280;54614;47.576;7.524;2023-03-04T03:06:50;98996.38;;;22.70;31.58
67818;BME280;54614;47.576;7.524;2023-03-04T03:09:16;99000.09;;;22.69;31.52
67818;BME280;54614;47.576;7.524;2023-03-04T03:11:42;98995.75;;;22.68;31.71
67818;BME280;54614;47.576;7.524;2023-03-04T03:14:08;98997.59;;;22.68;31.36
67818;BME280;54614;47.576;7.524;2023-03-04T03:16:34;98993.44;;;22.65;31.77
67818;BME280;54614;47.576;7.524;2023-03-04T03:19:00;98989.94;;;22.65;31.53
67818;BME280;54614;47.576;7.524;2023-03-04T03:21:26;98998.81;;;22.65;31.78
67818;BME280;54614;47.576;7.524;2023-03-04T03:23:52;98992.63;;;22.65;31.56
67818;BME280;54614;47.576;7.524;2023-03-04T03:26:18;98991.97;;;22.63;31.71
67818;BME280;54614;47.576;7.524;2023-03-04T03:28:44;98988.47;;;22.62;31.86
67818;BME280;54614;47.576;7.524;2023-03-04T03:31:10;98993.00;;;22.62;31.67
67818;BME280;54614;47.576;7.524;2023-03-04T03:33:36;98983.47;;;22.59;31.67
67818;BME280;54614;47.576;7.524;2023-03-04T03:36:03;98986.81;;;22.61;31.50
67818;BME280;54614;47.576;7.524;2023-03-04T03:38:29;98985.13;;;22.60;31.60
67818;BME280;54614;47.576;7.524;2023-03-04T03:40:55;98985.31;;;22.59;31.74
67818;BME280;54614;47.576;7.524;2023-03-04T03:43:25;98991.53;;;22.59;31.67
67818;BME280;54614;47.576;7.524;2023-03-04T03:45:50;98993.38;;;22.59;31.62
67818;BME280;54614;47.576;7.524;2023-03-04T03:48:17;98992.72;;;22.57;31.53
67818;BME280;54614;47.576;7.524;2023-03-04T03:50:43;98996.44;;;22.56;31.73
67818;BME280;54614;47.576;7.524;2023-03-04T03:53:10;98989.41;;;22.55;31.60
67818;BME280;54614;47.576;7.524;2023-03-04T03:55:36;98990.22;;;22.55;31.91
67818;BME280;54614;47.576;7.524;2023-03-04T03:58:03;99002.81;;;22.55;31.54
67818;BME280;54614;47.576;7.524;2023-03-04T04:00:30;98994.97;;;22.53;31.96
67818;BME280;54614;47.576;7.524;2023-03-04T04:02:58;98998.28;;;22.55;31.74
67818;BME280;54614;47.576;7.524;2023-03-04T04:05:25;99007.34;;;22.54;31.92
67818;BME280;54614;47.576;7.524;2023-03-04T04:07:51;99007.53;;;22.52;31.70
67818;BME280;54614;47.576;7.524;2023-03-04T04:10:17;99009.38;;;22.52;31.73
67818;BME280;54614;47.576;7.524;2023-03-04T04:12:43;99000.69;;;22.50;31.86
67818;BME280;54614;47.576;7.524;2023-03-04T04:15:11;99010.22;;;22.52;31.77
67818;BME280;54614;47.576;7.524;2023-03-04T04:17:37;99008.53;;;22.51;31.55
67818;BME280;54614;47.576;7.524;2023-03-04T04:20:05;99001.53;;;22.50;31.59
67818;BME280;54614;47.576;7.524;2023-03-04T04:22:31;99011.41;;;22.50;31.69
67818;BME280;54614;47.576;7.524;2023-03-04T04:24:57;99007.06;;;22.49;31.80
67818;BME280;54614;47.576;7.524;2023-03-04T04:27:23;99003.56;;;22.48;31.86
67818;BME280;54614;47.576;7.524;2023-03-04T04:29:49;99005.78;;;22.45;31.93
67818;BME280;54614;47.576;7.524;2023-03-04T04:32:15;99010.78;;;22.48;31.67
67818;BME280;54614;47.576;7.524;2023-03-04T04:34:41;99006.63;;;22.45;31.64
67818;BME280;54614;47.576;7.524;2023-03-04T04:37:07;99010.13;;;22.46;31.87
67818;BME280;54614;47.576;7.524;2023-03-04T04:39:35;99011.34;;;22.43;31.95
67818;BME280;54614;47.576;7.524;2023-03-04T04:42:01;99017.53;;;22.44;31.87
67818;BME280;54614;47.576;7.524;2023-03-04T04:44:27;99016.69;;;22.43;31.67
67818;BME280;54614;47.576;7.524;2023-03-04T04:46:53;99010.69;;;22.41;31.64
67818;BME280;54614;47.576;7.524;2023-03-04T04:49:19;99015.03;;;22.42;31.84
67818;BME280;54614;47.576;7.524;2023-03-04T04:51:45;99019.56;;;22.42;31.85
67818;BME280;54614;47.576;7.524;2023-03-04T04:54:13;99021.41;;;22.41;31.88
67818;BME280;54614;47.576;7.524;2023-03-04T04:56:39;99015.22;;;22.41;31.63
67818;BME280;54614;47.576;7.524;2023-03-04T04:59:05;99011.91;;;22.39;31.82
67818;BME280;54614;47.576;7.524;2023-03-04T05:01:34;99021.59;;;22.40;31.87
67818;BME280;54614;47.576;7.524;2023-03-04T05:04:00;99017.25;;;22.39;31.69
67818;BME280;54614;47.576;7.524;2023-03-04T05:06:26;99027.78;;;22.40;31.78
67818;BME280;54614;47.576;7.524;2023-03-04T05:08:52;99023.44;;;22.39;31.59
67818;BME280;54614;47.576;7.524;2023-03-04T05:11:19;99025.28;;;22.39;31.44
67818;BME280;54614;47.576;7.524;2023-03-04T05:13:46;99015.59;;;22.38;31.78
67818;BME280;54614;47.576;7.524;2023-03-04T05:16:13;99030.19;;;22.35;31.84
67818;BME280;54614;47.576;7.524;2023-03-04T05:18:39;99031.03;;;22.36;31.78
67818;BME280;54614;47.576;7.524;2023-03-04T05:21:05;99019.47;;;22.35;31.64
67818;BME280;54614;47.576;7.524;2023-03-04T05:23:36;99018.47;;;22.36;31.62
67818;BME280;54614;47.576;7.524;2023-03-04T05:26:03;99019.47;;;22.35;31.82
67818;BME280;54614;47.576;7.524;2023-03-04T05:28:30;99019.84;;;22.32;31.59
67818;BME280;54614;47.576;7.524;2023-03-04T05:30:56;99025.84;;;22.34;31.74
67818;BME280;54614;47.576;7.524;2023-03-04T05:33:22;99022.34;;;22.34;31.84
67818;BME280;54614;47.576;7.524;2023-03-04T05:35:49;99027.88;;;22.32;31.88
67818;BME280;54614;47.576;7.524;2023-03-04T05:38:18;99030.38;;;22.34;31.58
67818;BME280;54614;47.576;7.524;2023-03-04T05:40:45;99025.22;;;22.32;31.54
67818;BME280;54614;47.576;7.524;2023-03-04T05:43:12;99027.06;;;22.32;31.50
67818;BME280;54614;47.576;7.524;2023-03-04T05:45:39;99029.75;;;22.32;31.60
67818;BME280;54614;47.576;7.524;2023-03-04T05:48:06;99035.28;;;22.30;31.70
67818;BME280;54614;47.576;7.524;2023-03-04T05:50:33;99025.41;;;22.31;31.50
67818;BME280;54614;47.576;7.524;2023-03-04T05:52:59;99028.06;;;22.31;31.73
67818;BME280;54614;47.576;7.524;2023-03-04T05:55:25;99037.31;;;22.28;31.72
67818;BME280;54614;47.576;7.524;2023-03-04T05:57:53;99033.44;;;22.31;31.80
67818;BME280;54614;47.576;7.524;2023-03-04T06:00:19;99038.97;;;22.29;31.96
67818;BME280;54614;47.576;7.524;2023-03-04T06:02:45;99038.63;;;22.32;31.68
67818;BME280;54614;47.576;7.524;2023-03-04T06:05:13;99042.94;;;22.33;31.70
67818;BME280;54614;47.576;7.524;2023-03-04T06:07:41;99043.97;;;22.32;31.85
67818;BME280;54614;47.576;7.524;2023-03-04T06:10:14;99046.84;;;22.31;31.65
67818;BME280;54614;47.576;7.524;2023-03-04T06:12:42;99048.88;;;22.29;31.87
67818;BME280;54614;47.576;7.524;2023-03-04T06:15:08;99056.06;;;22.28;31.83
67818;BME280;54614;47.576;7.524;2023-03-04T06:17:36;99045.53;;;22.27;31.91
67818;BME280;54614;47.576;7.524;2023-03-04T06:20:03;99060.97;;;22.25;31.75
67818;BME280;54614;47.576;7.524;2023-03-04T06:22:32;99060.78;;;22.26;31.69
67818;BME280;54614;47.576;7.524;2023-03-04T06:24:59;99069.66;;;22.27;31.80
67818;BME280;54614;47.576;7.524;2023-03-04T06:27:28;99073.34;;;22.26;31.62
67818;BME280;54614;47.576;7.524;2023-03-04T06:29:53;99071.69;;;22.25;31.63
67818;BME280;54614;47.576;7.524;2023-03-04T06:32:19;99071.69;;;22.25;31.89
67818;BME280;54614;47.576;7.524;2023-03-04T06:34:45;99074.84;;;22.28;32.25
67818;BME280;54614;47.576;7.524;2023-03-04T06:37:11;99077.50;;;22.28;32.01
67818;BME280;54614;47.576;7.524;2023-03-04T06:39:37;99083.53;;;22.30;31.72
67818;BME280;54614;47.576;7.524;2023-03-04T06:42:02;99079.81;;;22.31;31.77
67818;BME280;54614;47.576;7.524;2023-03-04T06:44:28;99086.19;;;22.30;31.73
67818;BME280;54614;47.576;7.524;2023-03-04T06:46:54;99087.03;;;22.31;31.99
67818;BME280;54614;47.576;7.524;2023-03-04T06:49:20;99089.53;;;22.32;32.14
67818;BME280;54614;47.576;7.524;2023-03-04T06:51:46;99086.84;;;22.32;32.09
67818;BME280;54614;47.576;7.524;2023-03-04T06:54:11;99086.94;;;22.39;32.49
67818;BME280;54614;47.576;7.524;2023-03-04T06:56:37;99092.13;;;22.40;32.91
67818;BME280;54614;47.576;7.524;2023-03-04T06:59:03;99093.13;;;22.39;32.62
67818;BME280;54614;47.576;7.524;2023-03-04T07:01:29;99099.50;;;22.38;33.11
67818;BME280;54614;47.576;7.524;2023-03-04T07:03:56;99093.31;;;22.38;33.42
67818;BME280;54614;47.576;7.524;2023-03-04T07:06:26;99094.16;;;22.38;33.63
67818;BME280;54614;47.576;7.524;2023-03-04T07:08:53;99098.31;;;22.41;33.64
67818;BME280;54614;47.576;7.524;2023-03-04T07:11:20;99099.78;;;22.43;34.01
67818;BME280;54614;47.576;7.524;2023-03-04T07:13:47;99110.31;;;22.45;33.81
67818;BME280;54614;47.576;7.524;2023-03-04T07:16:18;99110.16;;;22.46;33.91
67818;BME280;54614;47.576;7.524;2023-03-04T07:18:45;99112.28;;;22.51;34.03
67818;BME280;54614;47.576;7.524;2023-03-04T07:21:13;99116.44;;;22.54;34.10
67818;BME280;54614;47.576;7.524;2023-03-04T07:23:40;99106.81;;;22.59;33.99
67818;BME280;54614;47.576;7.524;2023-03-04T07:26:06;99114.66;;;22.61;34.17
67818;BME280;54614;47.576;7.524;2023-03-04T07:28:34;99108.28;;;22.62;34.36
67818;BME280;54614;47.576;7.524;2023-03-04T07:31:21;99114.94;;;22.66;34.21
67818;BME280;54614;47.576;7.524;2023-03-04T07:33:48;99113.91;;;22.67;34.33
67818;BME280;54614;47.576;7.524;2023-03-04T07:36:14;99119.94;;;22.69;34.34
67818;BME280;54614;47.576;7.524;2023-03-04T07:38:48;99116.22;;;22.70;34.56
67818;BME280;54614;47.576;7.524;2023-03-04T07:41:15;99117.34;;;22.75;34.54
67818;BME280;54614;47.576;7.524;2023-03-04T07:43:41;99125.31;;;22.83;34.46
67818;BME280;54614;47.576;7.524;2023-03-04T07:46:08;99119.13;;;22.83;34.35
67818;BME280;54614;47.576;7.524;2023-03-04T07:48:35;99117.91;;;22.86;34.37
67818;BME280;54614;47.576;7.524;2023-03-04T07:51:15;99116.25;;;22.85;34.00
67818;BME280;54614;47.576;7.524;2023-03-04T07:53:44;99123.09;;;22.87;33.67
67818;BME280;54614;47.576;7.524;2023-03-04T07:56:15;99118.38;;;22.89;33.57
67818;BME280;54614;47.576;7.524;2023-03-04T07:58:41;99124.38;;;22.91;33.34
67818;BME280;54614;47.576;7.524;2023-03-04T08:01:15;99127.69;;;22.93;33.40
67818;BME280;54614;47.576;7.524;2023-03-04T08:03:42;99126.69;;;22.94;33.14
67818;BME280;54614;47.576;7.524;2023-03-04T08:06:11;99121.78;;;22.98;33.42
67818;BME280;54614;47.576;7.524;2023-03-04T08:08:37;99117.69;;;23.02;33.35
67818;BME280;54614;47.576;7.524;2023-03-04T08:11:09;99123.88;;;23.02;33.33
67818;BME280;54614;47.576;7.524;2023-03-04T08:13:36;99124.53;;;23.04;33.27
67818;BME280;54614;47.576;7.524;2023-03-04T08:16:03;99134.06;;;23.07;33.23
67818;BME280;54614;47.576;7.524;2023-03-04T08:18:29;99128.13;;;23.11;33.29
67818;BME280;54614;47.576;7.524;2023-03-04T08:20:55;99136.63;;;23.15;33.45
67818;BME280;54614;47.576;7.524;2023-03-04T08:23:21;99142.00;;;23.15;33.38
67818;BME280;54614;47.576;7.524;2023-03-04T08:25:47;99142.63;;;23.17;33.62
67818;BME280;54614;47.576;7.524;2023-03-04T08:28:14;99134.78;;;23.15;33.40
67818;BME280;54614;47.576;7.524;2023-03-04T08:30:40;99131.06;;;23.17;33.16
67818;BME280;54614;47.576;7.524;2023-03-04T08:33:08;99128.19;;;23.18;33.07
67818;BME280;54614;47.576;7.524;2023-03-04T08:35:39;99123.28;;;23.22;33.00
67818;BME280;54614;47.576;7.524;2023-03-04T08:38:05;99142.34;;;23.27;33.10
67818;BME280;54614;47.576;7.524;2023-03-04T08:40:31;99140.94;;;23.31;33.66
67818;BME280;54614;47.576;7.524;2023-03-04T08:42:57;99134.34;;;23.33;33.34
67818;BME280;54614;47.576;7.524;2023-03-04T08:45:23;99132.13;;;23.37;32.59
67818;BME280;54614;47.576;7.524;2023-03-04T08:47:50;99129.63;;;23.35;32.89
67818;BME280;54614;47.576;7.524;2023-03-04T08:50:19;99135.00;;;23.35;32.41
67818;BME280;54614;47.576;7.524;2023-03-04T08:52:46;99136.22;;;23.33;32.60
67818;BME280;54614;47.576;7.524;2023-03-04T08:55:12;99129.19;;;23.32;32.18
67818;BME280;54614;47.576;7.524;2023-03-04T08:57:38;99138.25;;;23.31;32.43
67818;BME280;54614;47.576;7.524;2023-03-04T09:00:05;99135.00;;;23.35;32.56
67818;BME280;54614;47.576;7.524;2023-03-04T09:02:31;99131.66;;;23.33;32.47
67818;BME280;54614;47.576;7.524;2023-03-04T09:04:57;99130.66;;;23.34;32.86
67818;BME280;54614;47.576;7.524;2023-03-04T09:07:23;99129.63;;;23.35;32.78
67818;BME280;54614;47.576;7.524;2023-03-04T09:09:48;99135.81;;;23.36;32.84
67818;BME280;54614;47.576;7.524;2023-03-04T09:12:14;99130.53;;;23.42;32.98
67818;BME280;54614;47.576;7.524;2023-03-04T09:14:40;99132.13;;;23.37;33.09
67818;BME280;54614;47.576;7.524;2023-03-04T09:17:06;99128.41;;;23.38;33.02
67818;BME280;54614;47.576;7.524;2023-03-04T09:19:32;99127.19;;;23.40;33.00
67818;BME280;54614;47.576;7.524;2023-03-04T09:21:58;99128.88;;;23.41;32.94
67818;BME280;54614;47.576;7.524;2023-03-04T09:24:25;99126.88;;;23.50;33.23
67818;BME280;54614;47.576;7.524;2023-03-04T09:26:53;99127.81;;;23.57;33.29
67818;BME280;54614;47.576;7.524;2023-03-04T09:29:20;99131.97;;;23.60;33.25
67818;BME280;54614;47.576;7.524;2023-03-04T09:31:46;99135.75;;;23.65;33.54
67818;BME280;54614;47.576;7.524;2023-03-04T09:34:12;99129.72;;;23.63;33.74
67818;BME280;54614;47.576;7.524;2023-03-04T09:36:38;99136.13;;;23.62;33.71
67818;BME280;54614;47.576;7.524;2023-03-04T09:39:05;99128.31;;;23.67;33.43
67818;BME280;54614;47.576;7.524;2023-03-04T09:41:47;99133.50;;;23.69;33.44
67818;BME280;54614;47.576;7.524;2023-03-04T09:44:28;99137.00;;;23.69;33.80
67818;BME280;54614;47.576;7.524;2023-03-04T09:47:02;99132.81;;;23.60;34.00
67818;BME280;54614;47.576;7.524;2023-03-04T09:49:30;99136.97;;;23.48;34.25
67818;BME280;54614;47.576;7.524;2023-03-04T09:52:23;99132.50;;;23.34;34.75
67818;BME280;54614;47.576;7.524;2023-03-04T09:58:36;99131.84;;;23.32;34.65
67818;BME280;54614;47.576;7.524;2023-03-04T10:01:35;99124.25;;;23.35;35.03
67818;BME280;54614;47.576;7.524;2023-03-04T10:04:33;99133.03;;;23.44;34.31
67818;BME280;54614;47.576;7.524;2023-03-04T10:07:02;99119.50;;;23.73;34.12
67818;BME280;54614;47.576;7.524;2023-03-04T10:12:15;99120.00;;;24.11;33.36
67818;BME280;54614;47.576;7.524;2023-03-04T10:14:58;99121.72;;;24.19;33.46
67818;BME280;54614;47.576;7.524;2023-03-04T10:17:42;99122.09;;;24.16;33.55
67818;BME280;54614;47.576;7.524;2023-03-04T10:20:26;99122.00;;;24.03;33.83
67818;BME280;54614;47.576;7.524;2023-03-04T10:23:09;99117.41;;;23.97;33.55
67818;BME280;54614;47.576;7.524;2023-03-04T10:25:42;99116.00;;;24.01;34.75
67818;BME280;54614;47.576;7.524;2023-03-04T10:28:19;99113.66;;;24.19;34.74
67818;BME280;54614;47.576;7.524;2023-03-04T10:31:11;99106.09;;;24.29;34.92
67818;BME280;54614;47.576;7.524;2023-03-04T10:33:40;99106.28;;;24.28;34.60
67818;BME280;54614;47.576;7.524;2023-03-04T10:39:02;99102.00;;;24.33;33.99
67818;BME280;54614;47.576;7.524;2023-03-04T10:41:31;99097.88;;;24.37;33.82
67818;BME280;54614;47.576;7.524;2023-03-04T10:46:38;99097.00;;;24.02;34.21
67818;BME280;54614;47.576;7.524;2023-03-04T10:49:04;99097.34;;;23.93;35.11
67818;BME280;54614;47.576;7.524;2023-03-04T10:51:31;99090.31;;;23.92;35.28
67818;BME280;54614;47.576;7.524;2023-03-04T10:54:29;99094.84;;;23.91;35.57
67818;BME280;54614;47.576;7.524;2023-03-04T10:57:01;99095.44;;;23.87;35.57
67818;BME280;54614;47.576;7.524;2023-03-04T10:59:45;99091.97;;;23.93;35.65
67818;BME280;54614;47.576;7.524;2023-03-04T11:02:26;99093.97;;;24.12;34.87
67818;BME280;54614;47.576;7.524;2023-03-04T11:07:58;99086.28;;;24.37;34.63
67818;BME280;54614;47.576;7.524;2023-03-04T11:10:31;99082.78;;;24.36;34.50
67818;BME280;54614;47.576;7.524;2023-03-04T11:13:25;99083.63;;;24.43;35.20
67818;BME280;54614;47.576;7.524;2023-03-04T11:16:02;99078.88;;;24.46;35.56
67818;BME280;54614;47.576;7.524;2023-03-04T11:18:52;99073.94;;;24.49;35.71
67818;BME280;54614;47.576;7.524;2023-03-04T11:21:28;99074.56;;;24.51;35.45
67818;BME280;54614;47.576;7.524;2023-03-04T11:24:11;99074.78;;;24.50;35.37
67818;BME280;54614;47.576;7.524;2023-03-04T11:26:51;99072.31;;;24.55;35.20
67818;BME280;54614;47.576;7.524;2023-03-04T11:29:31;99074.38;;;24.53;34.81
67818;BME280;54614;47.576;7.524;2023-03-04T11:32:27;99061.34;;;24.50;34.46
67818;BME280;54614;47.576;7.524;2023-03-04T11:35:05;99062.34;;;24.49;34.00
67818;BME280;54614;47.576;7.524;2023-03-04T11:37:56;99058.63;;;24.50;33.84
67818;BME280;54614;47.576;7.524;2023-03-04T11:40:30;99057.41;;;24.52;34.17
67818;BME280;54614;47.576;7.524;2023-03-04T11:43:13;99059.88;;;24.47;33.80
67818;BME280;54614;47.576;7.524;2023-03-04T11:58:37;99038.16;;;24.49;33.98
67818;BME280;54614;47.576;7.524;2023-03-04T12:01:14;99029.47;;;24.47;33.84
67818;BME280;54614;47.576;7.524;2023-03-04T12:22:25;99004.06;;;24.56;33.66
67818;BME280;54614;47.576;7.524;2023-03-04T12:28:30;99003.22;;;24.55;33.51
67818;BME280;54614;47.576;7.524;2023-03-04T12:42:41;98970.94;;;24.49;33.42
67818;BME280;54614;47.576;7.524;2023-03-04T12:45:26;98964.53;;;24.50;33.37
67818;BME280;54614;47.576;7.524;2023-03-04T12:54:39;98958.50;;;24.48;33.11
67818;BME280;54614;47.576;7.524;2023-03-04T12:57:18;98955.81;;;24.48;33.29
67818;BME280;54614;47.576;7.524;2023-03-04T13:16:56;98931.59;;;24.41;33.27
67818;BME280;54614;47.576;7.524;2023-03-04T13:36:03;98918.25;;;24.13;35.27
67818;BME280;54614;47.576;7.524;2023-03-04T13:41:28;98910.81;;;24.22;35.25
67818;BME280;54614;47.576;7.524;2023-03-04T13:44:01;98909.38;;;24.19;35.06
67818;BME280;54614;47.576;7.524;2023-03-04T13:46:41;98908.63;;;24.32;34.76
67818;BME280;54614;47.576;7.524;2023-03-04T13:49:20;98910.94;;;24.48;34.62
67818;BME280;54614;47.576;7.524;2023-03-04T13:51:49;98906.59;;;24.47;34.09
67818;BME280;54614;47.576;7.524;2023-03-04T13:54:31;98898.34;;;24.55;34.19
67818;BME280;54614;47.576;7.524;2023-03-04T13:59:29;98898.56;;;24.67;34.18
67818;BME280;54614;47.576;7.524;2023-03-04T14:02:11;98901.84;;;24.56;35.33
67818;BME280;54614;47.576;7.524;2023-03-04T14:04:42;98896.50;;;24.69;34.79
67818;BME280;54614;47.576;7.524;2023-03-04T14:07:29;98896.09;;;24.72;34.81
67818;BME280;54614;47.576;7.524;2023-03-04T14:12:41;98894.22;;;24.79;35.02
67818;BME280;54614;47.576;7.524;2023-03-04T14:17:50;98884.09;;;24.81;34.53
67818;BME280;54614;47.576;7.524;2023-03-04T14:20:35;98882.84;;;24.90;34.90
67818;BME280;54614;47.576;7.524;2023-03-04T14:23:22;98876.44;;;24.91;35.20
67818;BME280;54614;47.576;7.524;2023-03-04T14:25:48;98872.94;;;24.97;35.08
67818;BME280;54614;47.576;7.524;2023-03-04T14:28:19;98871.72;;;25.00;34.61
67818;BME280;54614;47.576;7.524;2023-03-04T14:30:55;98866.31;;;25.00;33.64
67818;BME280;54614;47.576;7.524;2023-03-04T14:33:28;98867.56;;;24.97;33.44
67818;BME280;54614;47.576;7.524;2023-03-04T14:36:01;98859.06;;;24.94;33.31
67818;BME280;54614;47.576;7.524;2023-03-04T14:38:33;98849.31;;;24.93;33.09
67818;BME280;54614;47.576;7.524;2023-03-04T14:41:27;98856.38;;;24.87;32.73
67818;BME280;54614;47.576;7.524;2023-03-04T14:44:13;98854.28;;;24.83;32.92
67818;BME280;54614;47.576;7.524;2023-03-04T14:46:49;98848.50;;;24.79;32.42
67818;BME280;54614;47.576;7.524;2023-03-04T14:49:17;98851.19;;;24.79;32.38
67818;BME280;54614;47.576;7.524;2023-03-04T14:51:48;98847.88;;;24.77;32.39
67818;BME280;54614;47.576;7.524;2023-03-04T14:56:52;98841.25;;;24.73;32.04
67818;BME280;54614;47.576;7.524;2023-03-04T14:59:28;98848.69;;;24.71;32.49
67818;BME280;54614;47.576;7.524;2023-03-04T15:02:28;98845.38;;;24.69;32.14
67818;BME280;54614;47.576;7.524;2023-03-04T15:05:09;98838.75;;;24.65;32.21
67818;BME280;54614;47.576;7.524;2023-03-04T15:07:37;98836.47;;;24.62;32.23
67818;BME280;54614;47.576;7.524;2023-03-04T15:10:09;98842.06;;;24.60;32.22
67818;BME280;54614;47.576;7.524;2023-03-04T15:12:37;98840.41;;;24.59;31.81
67818;BME280;54614;47.576;7.524;2023-03-04T15:15:39;98836.28;;;24.57;31.88